createdAt,value
2023-03-23T15:58:51.816Z,15.13
2023-03-23T16:01:25.069Z,15.03
2023-03-23T16:03:59.047Z,14.99
2023-03-23T16:06:28.247Z,14.96
2023-03-23T16:08:56.071Z,15.01
2023-03-23T16:11:24.951Z,15.06
2023-03-23T16:13:52.244Z,15.14
2023-03-23T16:16:24.629Z,15.22
2023-03-23T16:18:51.313Z,15.22
2023-03-23T16:21:18.431Z,15.08
2023-03-23T16:23:46.750Z,14.97
2023-03-23T16:26:16.371Z,14.92
2023-03-23T16:28:43.829Z,14.78
2023-03-23T16:31:11.007Z,14.67
2023-03-23T16:33:37.937Z,14.68
2023-03-23T16:36:05.541Z,14.64
2023-03-23T16:38:32.871Z,14.55
2023-03-23T16:41:16.325Z,14.53
2023-03-23T16:43:43.137Z,14.49
2023-03-23T16:46:11.328Z,14.44
2023-03-23T16:48:38.339Z,14.41
2023-03-23T16:51:05.578Z,14.31
2023-03-23T16:53:32.800Z,14.20
2023-03-23T16:55:59.321Z,14.00
2023-03-23T16:58:25.988Z,13.58
2023-03-23T17:00:55.673Z,13.25
2023-03-23T17:03:22.923Z,12.96
2023-03-23T17:05:51.157Z,12.68
2023-03-23T17:08:21.036Z,12.45
2023-03-23T17:10:48.484Z,12.31
2023-03-23T17:13:15.881Z,12.23
2023-03-23T17:15:46.430Z,12.15
2023-03-23T17:18:14.540Z,12.18
2023-03-23T17:20:41.750Z,12.19
2023-03-23T17:23:08.510Z,12.24
2023-03-23T17:25:35.212Z,12.20
2023-03-23T17:28:05.553Z,12.26
2023-03-23T17:30:44.754Z,12.25
2023-03-23T17:33:12.293Z,12.23
2023-03-23T17:35:38.968Z,12.23
2023-03-23T17:38:06.303Z,12.17
2023-03-23T17:40:32.892Z,12.11
2023-03-23T17:42:59.427Z,12.09
2023-03-23T17:45:26.023Z,12.18
2023-03-23T17:47:52.836Z,12.21
2023-03-23T17:50:19.993Z,12.19
2023-03-23T17:52:46.573Z,12.22
2023-03-23T17:55:13.143Z,12.23
2023-03-23T17:57:39.780Z,12.19
2023-03-23T18:00:09.140Z,12.30
2023-03-23T18:02:37.360Z,12.48
2023-03-23T18:05:04.844Z,12.70
2023-03-23T18:07:31.490Z,12.80
2023-03-23T18:09:59.752Z,12.89
2023-03-23T18:12:26.396Z,12.91
2023-03-23T18:14:57.608Z,12.83
2023-03-23T18:17:24.596Z,12.81
2023-03-23T18:19:51.306Z,12.78
2023-03-23T18:22:17.860Z,12.74
2023-03-23T18:24:44.465Z,12.66
2023-03-23T18:27:10.959Z,12.39
2023-03-23T18:29:37.726Z,12.15
2023-03-23T18:32:04.510Z,12.04
2023-03-23T18:34:32.090Z,11.97
2023-03-23T18:36:58.656Z,11.89
2023-03-23T18:39:25.250Z,11.87
2023-03-23T18:41:51.835Z,11.86
2023-03-23T18:44:18.439Z,11.82
2023-03-23T18:46:45.043Z,11.82
2023-03-23T18:49:11.653Z,11.78
2023-03-23T18:51:38.364Z,11.80
2023-03-23T18:54:05.006Z,11.79
2023-03-23T18:56:31.623Z,11.77
2023-03-23T18:58:58.428Z,11.75
2023-03-23T19:01:25.165Z,11.76
2023-03-23T19:03:51.884Z,11.75
2023-03-23T19:06:23.955Z,11.75
2023-03-23T19:08:52.225Z,11.75
2023-03-23T19:11:20.248Z,11.72
2023-03-23T19:13:58.440Z,11.71
2023-03-23T19:16:28.233Z,11.67
2023-03-23T19:18:54.915Z,11.68
2023-03-23T19:21:25.489Z,11.67
2023-03-23T19:23:53.226Z,11.66
2023-03-23T19:26:27.429Z,11.62
2023-03-23T19:29:24.324Z,11.61
2023-03-23T19:31:40.674Z,11.60
2023-03-23T19:34:08.714Z,11.58
2023-03-23T19:36:37.027Z,11.56
2023-03-23T19:39:06.495Z,11.54
2023-03-23T19:41:34.066Z,11.56
2023-03-23T19:44:01.452Z,11.53
2023-03-23T19:46:30.450Z,11.54
2023-03-23T19:48:58.456Z,11.53
2023-03-23T19:51:25.461Z,11.54
2023-03-23T19:53:56.115Z,11.50
2023-03-23T19:56:23.720Z,11.48
2023-03-23T19:58:50.928Z,11.46
2023-03-23T20:01:18.570Z,11.45
2023-03-23T20:03:45.777Z,11.44
2023-03-23T20:06:15.104Z,11.44
2023-03-23T20:08:45.683Z,11.45
2023-03-23T20:11:15.515Z,11.47
2023-03-23T20:13:42.273Z,11.44
2023-03-23T20:16:09.971Z,11.47
2023-03-23T20:18:38.104Z,11.45
2023-03-23T20:21:09.980Z,11.45
2023-03-23T20:23:37.275Z,11.47
2023-03-23T20:26:07.889Z,11.47
2023-03-23T20:28:35.808Z,11.46
2023-03-23T20:31:18.988Z,11.45
2023-03-23T20:34:01.050Z,11.43
2023-03-23T20:36:40.497Z,11.41
2023-03-23T20:39:10.694Z,11.39
2023-03-23T20:41:38.915Z,11.39
2023-03-23T20:44:10.107Z,11.42
2023-03-23T20:46:36.774Z,11.42
2023-03-23T20:49:05.343Z,11.40
2023-03-23T20:51:33.444Z,11.40
2023-03-23T20:54:00.892Z,11.38
2023-03-23T20:56:28.822Z,11.38
2023-03-23T20:58:56.018Z,11.37
2023-03-23T21:01:22.962Z,11.34
2023-03-23T21:03:52.432Z,11.32
2023-03-23T21:06:20.168Z,11.30
2023-03-23T21:08:47.110Z,11.27
2023-03-23T21:11:21.792Z,11.23
2023-03-23T21:13:49.036Z,11.21
2023-03-23T21:16:15.954Z,11.18
2023-03-23T21:18:42.675Z,11.15
2023-03-23T21:21:11.291Z,11.15
2023-03-23T21:23:39.310Z,11.11
2023-03-23T21:26:10.608Z,11.12
2023-03-23T21:28:38.059Z,11.09
2023-03-23T21:31:07.373Z,11.07
2023-03-23T21:33:34.185Z,11.07
2023-03-23T21:36:01.512Z,11.04
2023-03-23T21:38:28.451Z,11.07
2023-03-23T21:40:59.822Z,11.06
2023-03-23T21:43:27.894Z,11.07
2023-03-23T21:45:57.330Z,11.07
2023-03-23T21:48:26.486Z,11.04
2023-03-23T21:50:53.916Z,11.04
2023-03-23T21:53:20.953Z,11.05
2023-03-23T21:55:51.781Z,11.10
2023-03-23T21:58:26.796Z,11.10
2023-03-23T22:00:54.705Z,11.14
2023-03-23T22:03:25.610Z,11.16
2023-03-23T22:05:56.796Z,11.23
2023-03-23T22:08:28.888Z,11.26
2023-03-23T22:11:03.482Z,11.24
2023-03-23T22:13:32.230Z,11.26
2023-03-23T22:16:00.869Z,11.28
2023-03-23T22:18:27.496Z,11.27
2023-03-23T22:20:54.227Z,11.29
2023-03-23T22:23:21.258Z,11.27
2023-03-23T22:25:47.848Z,11.31
2023-03-23T22:28:14.477Z,11.34
2023-03-23T22:30:41.165Z,11.36
2023-03-23T22:33:08.061Z,11.36
2023-03-23T22:35:34.720Z,11.39
2023-03-23T22:38:03.205Z,11.37
2023-03-23T22:40:31.553Z,11.40
2023-03-23T22:42:58.250Z,11.40
2023-03-23T22:45:26.149Z,11.41
2023-03-23T22:47:53.086Z,11.43
2023-03-23T22:50:21.555Z,11.45
2023-03-23T22:52:48.459Z,11.43
2023-03-23T22:55:15.192Z,11.46
2023-03-23T22:57:42.018Z,11.45
2023-03-23T23:00:14.994Z,11.43
2023-03-23T23:02:44.286Z,11.41
2023-03-23T23:05:12.955Z,11.39
2023-03-23T23:07:39.930Z,11.43
2023-03-23T23:10:07.161Z,11.47
2023-03-23T23:12:35.112Z,11.46
2023-03-23T23:15:04.517Z,11.48
2023-03-23T23:17:32.167Z,11.47
2023-03-23T23:19:59.961Z,11.48
2023-03-23T23:22:27.504Z,11.47
2023-03-23T23:24:54.352Z,11.46
2023-03-23T23:27:20.985Z,11.45
2023-03-23T23:29:47.756Z,11.48
2023-03-23T23:32:14.475Z,11.48
2023-03-23T23:34:41.275Z,11.50
2023-03-23T23:37:09.107Z,11.47
2023-03-23T23:39:38.321Z,11.50
2023-03-23T23:42:05.999Z,11.55
2023-03-23T23:44:33.148Z,11.57
2023-03-23T23:46:59.847Z,11.61
2023-03-23T23:49:27.684Z,11.65
2023-03-23T23:51:55.468Z,11.71
2023-03-23T23:54:29.907Z,11.73
2023-03-23T23:56:57.961Z,11.80
2023-03-23T23:59:25.726Z,11.83
